sensor_id;sensor_type;location;lat;lon;timestamp;pressure;altitude;pressure_sealevel;temperature;humidity
9261;BME280;4667;42.726;23.252;2023-08-31T00:02:04;94698.84;;;20.31;50.89
9261;BME280;4667;42.726;23.252;2023-08-31T00:04:30;94693.91;;;19.94;52.14
9261;BME280;4667;42.726;23.252;2023-08-31T00:06:57;94687.34;;;19.74;52.78
9261;BME280;4667;42.726;23.252;2023-08-31T00:09:24;94691.31;;;19.68;53.19
9261;BME280;4667;42.726;23.252;2023-08-31T00:11:51;94699.94;;;19.65;53.37
9261;BME280;4667;42.726;23.252;2023-08-31T00:14:19;94699.16;;;19.56;53.62
9261;BME280;4667;42.726;23.252;2023-08-31T00:16:47;94702.31;;;19.41;54.25
9261;BME280;4667;42.726;23.252;2023-08-31T00:19:15;94704.81;;;19.29;54.85
9261;BME280;4667;42.726;23.252;2023-08-31T00:21:42;94703.09;;;19.24;55.11
9261;BME280;4667;42.726;23.252;2023-08-31T00:24:09;94702.00;;;19.16;55.44
9261;BME280;4667;42.726;23.252;2023-08-31T00:26:36;94707.34;;;19.08;55.87
9261;BME280;4667;42.726;23.252;2023-08-31T00:29:06;94707.97;;;18.96;56.30
9261;BME280;4667;42.726;23.252;2023-08-31T00:31:34;94705.13;;;18.92;56.00
9261;BME280;4667;42.726;23.252;2023-08-31T00:34:01;94675.38;;;18.77;55.99
9261;BME280;4667;42.726;23.252;2023-08-31T00:36:29;94722.88;;;18.97;56.13
9261;BME280;4667;42.726;23.252;2023-08-31T00:38:56;94720.38;;;18.92;56.18
9261;BME280;4667;42.726;23.252;2023-08-31T00:41:23;94727.41;;;18.88;56.38
9261;BME280;4667;42.726;23.252;2023-08-31T00:43:49;94727.41;;;18.79;56.38
9261;BME280;4667;42.726;23.252;2023-08-31T00:46:16;94726.03;;;18.90;56.33
9261;BME280;4667;42.726;23.252;2023-08-31T00:48:44;94726.19;;;18.94;55.94
9261;BME280;4667;42.726;23.252;2023-08-31T00:51:11;94724.91;;;18.91;56.22
9261;BME280;4667;42.726;23.252;2023-08-31T00:53:38;94710.31;;;18.98;55.99
9261;BME280;4667;42.726;23.252;2023-08-31T00:56:05;94710.47;;;18.84;56.50
9261;BME280;4667;42.726;23.252;2023-08-31T00:58:33;94720.38;;;18.92;56.43
9261;BME280;4667;42.726;23.252;2023-08-31T01:01:06;94712.69;;;18.99;56.21
9261;BME280;4667;42.726;23.252;2023-08-31T01:03:42;94721.66;;;19.12;56.09
9261;BME280;4667;42.726;23.252;2023-08-31T01:06:45;94734.25;;;19.20;56.01
9261;BME280;4667;42.726;23.252;2023-08-31T01:09:21;94728.59;;;19.21;56.04
9261;BME280;4667;42.726;23.252;2023-08-31T01:11:56;94721.19;;;19.18;56.08
9261;BME280;4667;42.726;23.252;2023-08-31T01:14:27;94718.50;;;19.10;56.06
9261;BME280;4667;42.726;23.252;2023-08-31T01:16:57;94727.47;;;19.22;56.02
9261;BME280;4667;42.726;23.252;2023-08-31T01:19:39;94704.53;;;19.21;55.46
9261;BME280;4667;42.726;23.252;2023-08-31T01:22:16;94728.56;;;19.39;55.50
9261;BME280;4667;42.726;23.252;2023-08-31T01:24:45;94721.34;;;19.39;55.43
9261;BME280;4667;42.726;23.252;2023-08-31T01:27:13;94639.41;;;18.91;55.34
9261;BME280;4667;42.726;23.252;2023-08-31T01:29:39;94727.63;;;19.43;54.97
9261;BME280;4667;42.726;23.252;2023-08-31T01:32:07;94712.06;;;19.37;54.88
9261;BME280;4667;42.726;23.252;2023-08-31T01:34:49;94722.91;;;19.49;54.80
9261;BME280;4667;42.726;23.252;2023-08-31T01:37:26;94714.91;;;19.40;55.03
9261;BME280;4667;42.726;23.252;2023-08-31T01:39:59;94720.41;;;19.44;54.88
9261;BME280;4667;42.726;23.252;2023-08-31T01:42:29;94721.34;;;19.48;54.70
9261;BME280;4667;42.726;23.252;2023-08-31T01:44:58;94728.72;;;19.34;55.06
9261;BME280;4667;42.726;23.252;2023-08-31T01:47:30;94720.41;;;19.44;54.89
9261;BME280;4667;42.726;23.252;2023-08-31T01:49:57;94726.69;;;19.39;54.74
9261;BME280;4667;42.726;23.252;2023-08-31T01:52:24;94735.53;;;19.40;54.90
9261;BME280;4667;42.726;23.252;2023-08-31T01:54:51;94722.63;;;19.25;55.17
9261;BME280;4667;42.726;23.252;2023-08-31T01:57:19;94733.00;;;19.26;55.21
9261;BME280;4667;42.726;23.252;2023-08-31T01:59:46;94732.03;;;19.22;55.61
9261;BME280;4667;42.726;23.252;2023-08-31T02:02:12;94735.31;;;19.19;55.56
9261;BME280;4667;42.726;23.252;2023-08-31T02:04:39;94743.50;;;19.14;55.66
9261;BME280;4667;42.726;23.252;2023-08-31T02:07:06;94742.25;;;19.11;56.03
9261;BME280;4667;42.726;23.252;2023-08-31T02:09:33;94746.94;;;18.97;56.13
9261;BME280;4667;42.726;23.252;2023-08-31T02:11:59;94749.59;;;18.97;56.24
9261;BME280;4667;42.726;23.252;2023-08-31T02:14:29;94747.72;;;18.98;56.24
9261;BME280;4667;42.726;23.252;2023-08-31T02:16:56;94747.44;;;18.99;56.06
9261;BME280;4667;42.726;23.252;2023-08-31T02:19:22;94743.47;;;18.96;56.41
9261;BME280;4667;42.726;23.252;2023-08-31T02:21:49;94735.00;;;18.94;56.17
9261;BME280;4667;42.726;23.252;2023-08-31T02:24:16;94747.25;;;18.95;56.22
9261;BME280;4667;42.726;23.252;2023-08-31T02:26:42;94751.47;;;18.88;56.28
9261;BME280;4667;42.726;23.252;2023-08-31T02:29:09;94741.41;;;18.85;55.73
9261;BME280;4667;42.726;23.252;2023-08-31T02:31:37;94743.59;;;18.74;56.04
9261;BME280;4667;42.726;23.252;2023-08-31T02:34:04;94745.16;;;18.75;55.86
9261;BME280;4667;42.726;23.252;2023-08-31T02:36:31;94734.19;;;18.85;55.62
9261;BME280;4667;42.726;23.252;2023-08-31T02:38:57;94726.50;;;18.84;55.40
9261;BME280;4667;42.726;23.252;2023-08-31T02:41:23;94728.22;;;18.97;54.99
9261;BME280;4667;42.726;23.252;2023-08-31T02:43:50;94738.31;;;19.00;54.69
9261;BME280;4667;42.726;23.252;2023-08-31T02:46:17;94735.94;;;19.07;54.43
9261;BME280;4667;42.726;23.252;2023-08-31T02:48:46;94712.19;;;18.88;54.66
9261;BME280;4667;42.726;23.252;2023-08-31T02:51:13;94737.19;;;19.01;54.93
9261;BME280;4667;42.726;23.252;2023-08-31T02:53:39;94727.13;;;18.89;54.93
9261;BME280;4667;42.726;23.252;2023-08-31T02:56:06;94746.63;;;18.90;55.02
9261;BME280;4667;42.726;23.252;2023-08-31T02:58:33;94754.91;;;18.88;54.27
9261;BME280;4667;42.726;23.252;2023-08-31T03:01:07;94753.84;;;18.89;54.05
9261;BME280;4667;42.726;23.252;2023-08-31T03:03:36;94742.97;;;18.77;53.76
9261;BME280;4667;42.726;23.252;2023-08-31T03:06:06;94761.09;;;18.89;53.55
9261;BME280;4667;42.726;23.252;2023-08-31T03:08:32;94770.03;;;18.93;53.59
9261;BME280;4667;42.726;23.252;2023-08-31T03:10:59;94759.66;;;18.91;53.56
9261;BME280;4667;42.726;23.252;2023-08-31T03:13:26;94776.16;;;18.93;53.63
9261;BME280;4667;42.726;23.252;2023-08-31T03:15:52;94750.00;;;18.73;53.93
9261;BME280;4667;42.726;23.252;2023-08-31T03:18:19;94757.88;;;18.78;53.97
9261;BME280;4667;42.726;23.252;2023-08-31T03:20:46;94642.78;;;18.00;53.37
9261;BME280;4667;42.726;23.252;2023-08-31T03:23:14;94760.13;;;18.93;53.58
9261;BME280;4667;42.726;23.252;2023-08-31T03:25:41;94763.13;;;18.92;53.58
9261;BME280;4667;42.726;23.252;2023-08-31T03:28:08;94769.59;;;19.00;53.52
9261;BME280;4667;42.726;23.252;2023-08-31T03:30:58;94766.72;;;18.87;53.57
9261;BME280;4667;42.726;23.252;2023-08-31T03:33:25;94760.41;;;18.75;54.01
9261;BME280;4667;42.726;23.252;2023-08-31T03:35:52;94773.44;;;18.76;54.24
9261;BME280;4667;42.726;23.252;2023-08-31T03:38:20;94773.91;;;18.69;54.56
9261;BME280;4667;42.726;23.252;2023-08-31T03:40:53;94777.78;;;18.63;54.95
9261;BME280;4667;42.726;23.252;2023-08-31T03:43:20;94779.13;;;18.52;55.35
9261;BME280;4667;42.726;23.252;2023-08-31T03:45:47;94760.56;;;18.38;54.99
9261;BME280;4667;42.726;23.252;2023-08-31T03:48:14;94780.53;;;18.50;54.91
9261;BME280;4667;42.726;23.252;2023-08-31T03:50:41;94782.56;;;18.44;55.21
9261;BME280;4667;42.726;23.252;2023-08-31T03:53:07;94788.16;;;18.34;55.45
9261;BME280;4667;42.726;23.252;2023-08-31T03:55:37;94786.75;;;18.36;55.40
9261;BME280;4667;42.726;23.252;2023-08-31T03:58:03;94788.00;;;18.30;55.74
9261;BME280;4667;42.726;23.252;2023-08-31T04:00:30;94787.03;;;18.26;55.84
9261;BME280;4667;42.726;23.252;2023-08-31T04:02:57;94804.91;;;18.26;56.19
9261;BME280;4667;42.726;23.252;2023-08-31T04:05:24;94808.16;;;18.14;56.53
9261;BME280;4667;42.726;23.252;2023-08-31T04:07:51;94743.25;;;17.60;56.75
9261;BME280;4667;42.726;23.252;2023-08-31T04:10:18;94785.22;;;17.90;56.67
9261;BME280;4667;42.726;23.252;2023-08-31T04:12:46;94837.09;;;17.98;57.48
9261;BME280;4667;42.726;23.252;2023-08-31T04:15:13;94822.09;;;17.88;57.43
9261;BME280;4667;42.726;23.252;2023-08-31T04:17:40;94843.56;;;17.83;58.26
9261;BME280;4667;42.726;23.252;2023-08-31T04:20:07;94782.31;;;17.56;58.03
9261;BME280;4667;42.726;23.252;2023-08-31T04:22:34;94824.63;;;17.71;58.53
9261;BME280;4667;42.726;23.252;2023-08-31T04:25:01;94847.22;;;17.87;58.28
9261;BME280;4667;42.726;23.252;2023-08-31T04:27:27;94850.56;;;17.93;58.11
9261;BME280;4667;42.726;23.252;2023-08-31T04:29:58;94830.13;;;17.88;57.99
9261;BME280;4667;42.726;23.252;2023-08-31T04:32:25;94854.88;;;18.03;58.06
9261;BME280;4667;42.726;23.252;2023-08-31T04:34:52;94851.56;;;18.06;58.31
9261;BME280;4667;42.726;23.252;2023-08-31T04:37:21;94816.22;;;17.78;58.67
9261;BME280;4667;42.726;23.252;2023-08-31T04:39:47;94854.44;;;18.09;58.44
9261;BME280;4667;42.726;23.252;2023-08-31T04:42:14;94856.97;;;18.14;58.28
9261;BME280;4667;42.726;23.252;2023-08-31T04:44:42;94857.28;;;18.13;58.48
9261;BME280;4667;42.726;23.252;2023-08-31T04:47:10;94861.22;;;18.15;58.49
9261;BME280;4667;42.726;23.252;2023-08-31T04:49:37;94864.88;;;18.19;58.49
9261;BME280;4667;42.726;23.252;2023-08-31T04:52:04;94866.44;;;18.21;58.02
9261;BME280;4667;42.726;23.252;2023-08-31T04:54:31;94813.78;;;17.90;57.82
9261;BME280;4667;42.726;23.252;2023-08-31T04:56:58;94866.06;;;18.36;57.70
9261;BME280;4667;42.726;23.252;2023-08-31T04:59:25;94869.22;;;18.38;57.70
9261;BME280;4667;42.726;23.252;2023-08-31T05:01:52;94869.44;;;18.50;56.99
9261;BME280;4667;42.726;23.252;2023-08-31T05:04:20;94863.97;;;18.55;57.05
9261;BME280;4667;42.726;23.252;2023-08-31T05:06:47;94869.66;;;18.62;57.48
9261;BME280;4667;42.726;23.252;2023-08-31T05:09:14;94871.16;;;18.68;57.10
9261;BME280;4667;42.726;23.252;2023-08-31T05:11:40;94861.66;;;18.62;56.87
9261;BME280;4667;42.726;23.252;2023-08-31T05:14:07;94864.28;;;18.76;56.71
9261;BME280;4667;42.726;23.252;2023-08-31T05:16:34;94874.25;;;18.93;56.57
9261;BME280;4667;42.726;23.252;2023-08-31T05:19:01;94867.19;;;18.97;56.01
9261;BME280;4667;42.726;23.252;2023-08-31T05:21:29;94872.91;;;19.13;55.77
9261;BME280;4667;42.726;23.252;2023-08-31T05:23:56;94880.34;;;19.25;55.35
9261;BME280;4667;42.726;23.252;2023-08-31T05:26:23;94870.13;;;19.27;54.42
9261;BME280;4667;42.726;23.252;2023-08-31T05:28:49;94872.81;;;19.44;53.53
9261;BME280;4667;42.726;23.252;2023-08-31T05:31:16;94875.69;;;19.56;53.27
9261;BME280;4667;42.726;23.252;2023-08-31T05:33:43;94871.16;;;19.65;53.41
9261;BME280;4667;42.726;23.252;2023-08-31T05:36:10;94859.38;;;19.75;52.59
9261;BME280;4667;42.726;23.252;2023-08-31T05:38:38;94865.53;;;19.93;52.53
9261;BME280;4667;42.726;23.252;2023-08-31T05:41:06;94859.53;;;20.05;51.44
9261;BME280;4667;42.726;23.252;2023-08-31T05:43:34;94851.19;;;20.15;51.24
9261;BME280;4667;42.726;23.252;2023-08-31T05:46:00;94865.47;;;20.36;51.41
9261;BME280;4667;42.726;23.252;2023-08-31T05:48:28;94861.09;;;20.49;51.21
9261;BME280;4667;42.726;23.252;2023-08-31T05:50:55;94828.00;;;20.36;51.43
9261;BME280;4667;42.726;23.252;2023-08-31T05:53:22;94854.25;;;20.69;50.15
9261;BME280;4667;42.726;23.252;2023-08-31T05:55:50;94853.59;;;20.81;50.25
9261;BME280;4667;42.726;23.252;2023-08-31T05:58:17;94863.03;;;20.87;50.58
9261;BME280;4667;42.726;23.252;2023-08-31T06:00:44;94858.59;;;20.91;50.64
9261;BME280;4667;42.726;23.252;2023-08-31T06:03:11;94858.44;;;20.87;50.68
9261;BME280;4667;42.726;23.252;2023-08-31T06:05:37;94862.91;;;20.83;49.85
9261;BME280;4667;42.726;23.252;2023-08-31T06:08:05;94872.75;;;21.00;49.73
9261;BME280;4667;42.726;23.252;2023-08-31T06:10:32;94864.72;;;21.00;49.51
9261;BME280;4667;42.726;23.252;2023-08-31T06:13:00;94865.28;;;21.14;49.67
9261;BME280;4667;42.726;23.252;2023-08-31T06:15:27;94876.75;;;21.23;49.59
9261;BME280;4667;42.726;23.252;2023-08-31T06:17:54;94868.56;;;21.20;49.77
9261;BME280;4667;42.726;23.252;2023-08-31T06:20:20;94879.56;;;21.36;49.00
9261;BME280;4667;42.726;23.252;2023-08-31T06:22:47;94879.97;;;21.46;48.62
9261;BME280;4667;42.726;23.252;2023-08-31T06:25:14;94891.72;;;21.63;48.59
9261;BME280;4667;42.726;23.252;2023-08-31T06:27:41;94882.88;;;21.62;47.77
9261;BME280;4667;42.726;23.252;2023-08-31T06:30:11;94894.81;;;21.73;47.97
9261;BME280;4667;42.726;23.252;2023-08-31T06:32:42;94902.63;;;21.87;47.58
9261;BME280;4667;42.726;23.252;2023-08-31T06:35:08;94893.91;;;21.90;47.12
9261;BME280;4667;42.726;23.252;2023-08-31T06:37:36;94908.19;;;22.03;46.28
9261;BME280;4667;42.726;23.252;2023-08-31T06:40:03;94862.59;;;21.73;45.69
9261;BME280;4667;42.726;23.252;2023-08-31T06:42:29;94914.94;;;22.09;44.88
9261;BME280;4667;42.726;23.252;2023-08-31T06:44:56;94915.53;;;22.15;45.13
9261;BME280;4667;42.726;23.252;2023-08-31T06:47:24;94911.03;;;22.27;44.64
9261;BME280;4667;42.726;23.252;2023-08-31T06:49:51;94914.75;;;22.35;44.96
9261;BME280;4667;42.726;23.252;2023-08-31T06:52:18;94898.69;;;22.26;43.49
9261;BME280;4667;42.726;23.252;2023-08-31T06:54:45;94918.94;;;22.45;43.17
9261;BME280;4667;42.726;23.252;2023-08-31T06:57:11;94917.81;;;22.46;42.98
9261;BME280;4667;42.726;23.252;2023-08-31T06:59:38;94920.59;;;22.70;43.28
9261;BME280;4667;42.726;23.252;2023-08-31T07:02:05;94922.09;;;22.80;42.86
9261;BME280;4667;42.726;23.252;2023-08-31T07:04:33;94921.09;;;22.84;42.52
9261;BME280;4667;42.726;23.252;2023-08-31T07:07:00;94918.78;;;22.95;42.50
9261;BME280;4667;42.726;23.252;2023-08-31T07:09:28;94911.84;;;23.06;42.53
9261;BME280;4667;42.726;23.252;2023-08-31T07:11:54;94924.44;;;23.15;42.37
9261;BME280;4667;42.726;23.252;2023-08-31T07:14:21;94910.09;;;23.35;42.35
9261;BME280;4667;42.726;23.252;2023-08-31T07:16:48;94915.16;;;23.61;41.74
9261;BME280;4667;42.726;23.252;2023-08-31T07:19:15;94910.25;;;23.75;41.74
9261;BME280;4667;42.726;23.252;2023-08-31T07:21:43;94919.06;;;23.88;41.08
9261;BME280;4667;42.726;23.252;2023-08-31T07:24:10;94920.88;;;23.96;40.96
9261;BME280;4667;42.726;23.252;2023-08-31T07:26:37;94918.91;;;24.09;40.95
9261;BME280;4667;42.726;23.252;2023-08-31T07:29:04;94928.53;;;24.22;40.80
9261;BME280;4667;42.726;23.252;2023-08-31T07:31:31;94866.22;;;23.96;40.20
9261;BME280;4667;42.726;23.252;2023-08-31T07:33:58;94929.03;;;24.52;40.23
9261;BME280;4667;42.726;23.252;2023-08-31T07:36:25;94925.25;;;24.69;39.73
9261;BME280;4667;42.726;23.252;2023-08-31T07:38:52;94888.25;;;24.54;39.91
9261;BME280;4667;42.726;23.252;2023-08-31T07:41:19;94924.47;;;24.69;38.79
9261;BME280;4667;42.726;23.252;2023-08-31T07:43:46;94918.13;;;24.77;38.86
9261;BME280;4667;42.726;23.252;2023-08-31T07:46:14;94927.38;;;24.92;39.32
9261;BME280;4667;42.726;23.252;2023-08-31T07:48:41;94886.50;;;24.89;37.86
9261;BME280;4667;42.726;23.252;2023-08-31T07:51:08;94920.84;;;25.36;37.35
9261;BME280;4667;42.726;23.252;2023-08-31T07:53:35;94921.19;;;25.51;37.88
9261;BME280;4667;42.726;23.252;2023-08-31T07:56:03;94925.53;;;25.39;37.65
9261;BME280;4667;42.726;23.252;2023-08-31T07:58:30;94862.59;;;25.20;37.74
9261;BME280;4667;42.726;23.252;2023-08-31T08:00:56;94859.72;;;25.12;36.80
9261;BME280;4667;42.726;23.252;2023-08-31T08:03:23;94936.31;;;25.71;36.85
9261;BME280;4667;42.726;23.252;2023-08-31T08:05:50;94835.16;;;25.02;37.11
9261;BME280;4667;42.726;23.252;2023-08-31T08:08:17;94930.69;;;25.76;36.84
9261;BME280;4667;42.726;23.252;2023-08-31T08:10:44;94880.50;;;25.59;34.24
9261;BME280;4667;42.726;23.252;2023-08-31T08:13:13;94923.94;;;26.21;33.67
9261;BME280;4667;42.726;23.252;2023-08-31T08:15:40;94929.28;;;26.76;33.57
9261;BME280;4667;42.726;23.252;2023-08-31T08:18:07;94886.66;;;26.88;33.07
9261;BME280;4667;42.726;23.252;2023-08-31T08:20:34;94927.84;;;27.70;30.14
9261;BME280;4667;42.726;23.252;2023-08-31T08:23:01;94861.16;;;27.62;28.98
9261;BME280;4667;42.726;23.252;2023-08-31T08:25:30;94925.22;;;28.57;28.63
9261;BME280;4667;42.726;23.252;2023-08-31T08:28:00;94925.34;;;28.67;27.36
9261;BME280;4667;42.726;23.252;2023-08-31T08:30:30;94919.59;;;28.76;27.20
9261;BME280;4667;42.726;23.252;2023-08-31T08:33:09;94912.47;;;28.94;26.55
9261;BME280;4667;42.726;23.252;2023-08-31T08:35:39;94775.44;;;28.78;27.65
9261;BME280;4667;42.726;23.252;2023-08-31T08:38:06;94914.53;;;30.00;28.84
9261;BME280;4667;42.726;23.252;2023-08-31T08:40:33;94739.28;;;29.14;28.40
9261;BME280;4667;42.726;23.252;2023-08-31T08:43:00;94879.53;;;30.79;27.81
9261;BME280;4667;42.726;23.252;2023-08-31T08:45:32;94926.34;;;31.31;26.22
9261;BME280;4667;42.726;23.252;2023-08-31T08:48:02;94932.22;;;31.87;25.70
9261;BME280;4667;42.726;23.252;2023-08-31T08:50:31;94936.47;;;32.20;25.05
9261;BME280;4667;42.726;23.252;2023-08-31T08:52:59;94920.44;;;32.29;24.30
9261;BME280;4667;42.726;23.252;2023-08-31T08:55:27;94932.00;;;32.72;23.65
9261;BME280;4667;42.726;23.252;2023-08-31T08:57:54;94914.63;;;32.16;21.81
9261;BME280;4667;42.726;23.252;2023-08-31T09:00:21;94925.09;;;32.32;21.99
9261;BME280;4667;42.726;23.252;2023-08-31T09:02:50;94927.47;;;32.30;21.21
9261;BME280;4667;42.726;23.252;2023-08-31T09:05:17;94928.31;;;31.48;22.25
9261;BME280;4667;42.726;23.252;2023-08-31T09:08:03;94788.06;;;30.46;22.79
9261;BME280;4667;42.726;23.252;2023-08-31T09:10:35;94894.81;;;31.76;21.61
9261;BME280;4667;42.726;23.252;2023-08-31T09:13:05;94899.81;;;30.99;22.64
9261;BME280;4667;42.726;23.252;2023-08-31T09:15:39;94897.53;;;31.73;22.33
9261;BME280;4667;42.726;23.252;2023-08-31T09:18:07;94905.31;;;31.99;21.25
9261;BME280;4667;42.726;23.252;2023-08-31T09:20:43;94916.25;;;31.60;22.13
9261;BME280;4667;42.726;23.252;2023-08-31T09:23:10;94923.25;;;31.54;22.24
9261;BME280;4667;42.726;23.252;2023-08-31T09:25:41;94918.78;;;30.71;22.95
9261;BME280;4667;42.726;23.252;2023-08-31T09:28:09;94915.75;;;30.94;22.35
9261;BME280;4667;42.726;23.252;2023-08-31T09:30:36;94843.19;;;30.21;22.61
9261;BME280;4667;42.726;23.252;2023-08-31T09:33:03;94931.75;;;31.24;22.62
9261;BME280;4667;42.726;23.252;2023-08-31T09:35:32;94929.47;;;31.62;21.77
9261;BME280;4667;42.726;23.252;2023-08-31T09:37:58;94925.59;;;31.88;21.65
9261;BME280;4667;42.726;23.252;2023-08-31T09:40:26;94931.03;;;31.91;21.27
9261;BME280;4667;42.726;23.252;2023-08-31T09:42:53;94918.94;;;32.10;20.34
9261;BME280;4667;42.726;23.252;2023-08-31T09:45:25;94918.09;;;32.45;20.56
9261;BME280;4667;42.726;23.252;2023-08-31T09:47:54;94909.94;;;33.15;20.04
9261;BME280;4667;42.726;23.252;2023-08-31T09:50:23;94907.88;;;33.85;19.05
9261;BME280;4667;42.726;23.252;2023-08-31T09:52:53;94900.56;;;33.72;19.01
9261;BME280;4667;42.726;23.252;2023-08-31T09:55:22;94912.97;;;33.83;19.29
9261;BME280;4667;42.726;23.252;2023-08-31T09:57:52;94878.03;;;34.36;19.06
9261;BME280;4667;42.726;23.252;2023-08-31T10:00:21;94910.84;;;33.57;19.08
9261;BME280;4667;42.726;23.252;2023-08-31T10:02:49;94912.31;;;33.69;18.81
9261;BME280;4667;42.726;23.252;2023-08-31T10:05:16;94901.19;;;33.45;18.58
9261;BME280;4667;42.726;23.252;2023-08-31T10:07:43;94909.88;;;33.78;18.03
9261;BME280;4667;42.726;23.252;2023-08-31T10:10:13;94914.28;;;33.09;18.29
9261;BME280;4667;42.726;23.252;2023-08-31T10:12:41;94862.78;;;33.07;17.62
9261;BME280;4667;42.726;23.252;2023-08-31T10:15:09;94905.59;;;33.21;18.43
9261;BME280;4667;42.726;23.252;2023-08-31T10:17:37;94902.00;;;33.35;18.50
9261;BME280;4667;42.726;23.252;2023-08-31T10:20:07;94824.25;;;32.88;19.11
9261;BME280;4667;42.726;23.252;2023-08-31T10:22:34;94906.09;;;33.65;18.98
9261;BME280;4667;42.726;23.252;2023-08-31T10:25:02;94908.31;;;33.25;19.10
9261;BME280;4667;42.726;23.252;2023-08-31T10:27:37;94830.22;;;32.65;20.20
9261;BME280;4667;42.726;23.252;2023-08-31T10:30:19;94908.06;;;33.05;19.69
9261;BME280;4667;42.726;23.252;2023-08-31T10:35:48;94815.03;;;31.33;21.38
9261;BME280;4667;42.726;23.252;2023-08-31T10:38:15;94881.53;;;31.11;22.45
9261;BME280;4667;42.726;23.252;2023-08-31T10:40:59;94922.34;;;30.82;23.34
9261;BME280;4667;42.726;23.252;2023-08-31T10:43:43;94913.66;;;30.59;23.06
9261;BME280;4667;42.726;23.252;2023-08-31T10:46:18;94918.56;;;30.24;23.47
9261;BME280;4667;42.726;23.252;2023-08-31T10:48:52;94923.34;;;30.49;23.92
9261;BME280;4667;42.726;23.252;2023-08-31T10:51:25;94896.66;;;30.03;24.08
9261;BME280;4667;42.726;23.252;2023-08-31T10:53:52;94930.78;;;29.90;23.87
9261;BME280;4667;42.726;23.252;2023-08-31T10:56:20;94907.50;;;29.44;24.08
9261;BME280;4667;42.726;23.252;2023-08-31T10:59:01;94928.28;;;29.26;24.52
9261;BME280;4667;42.726;23.252;2023-08-31T11:01:54;94934.72;;;29.99;23.42
9261;BME280;4667;42.726;23.252;2023-08-31T11:06:48;94930.97;;;32.23;21.68
9261;BME280;4667;42.726;23.252;2023-08-31T11:09:19;94938.66;;;33.41;20.22
9261;BME280;4667;42.726;23.252;2023-08-31T11:11:46;94910.56;;;33.89;19.30
9261;BME280;4667;42.726;23.252;2023-08-31T11:14:15;94931.88;;;34.80;19.13
9261;BME280;4667;42.726;23.252;2023-08-31T11:16:43;94935.88;;;34.76;18.92
9261;BME280;4667;42.726;23.252;2023-08-31T11:19:10;94921.16;;;34.97;18.87
9261;BME280;4667;42.726;23.252;2023-08-31T11:21:37;94912.25;;;35.43;19.14
9261;BME280;4667;42.726;23.252;2023-08-31T11:24:04;94933.03;;;35.67;18.09
9261;BME280;4667;42.726;23.252;2023-08-31T11:26:32;94936.34;;;34.33;18.88
9261;BME280;4667;42.726;23.252;2023-08-31T11:28:59;94918.66;;;32.96;21.28
9261;BME280;4667;42.726;23.252;2023-08-31T11:31:27;94926.88;;;32.92;21.70
9261;BME280;4667;42.726;23.252;2023-08-31T11:33:54;94934.56;;;31.81;22.96
9261;BME280;4667;42.726;23.252;2023-08-31T11:36:21;94938.44;;;31.76;23.88
9261;BME280;4667;42.726;23.252;2023-08-31T11:38:48;94936.47;;;31.63;24.59
9261;BME280;4667;42.726;23.252;2023-08-31T11:41:15;94931.81;;;31.45;24.38
9261;BME280;4667;42.726;23.252;2023-08-31T11:43:42;94940.34;;;32.40;23.27
9261;BME280;4667;42.726;23.252;2023-08-31T11:46:09;94942.44;;;33.02;22.25
9261;BME280;4667;42.726;23.252;2023-08-31T11:48:38;94935.34;;;33.68;20.99
9261;BME280;4667;42.726;23.252;2023-08-31T11:51:06;94926.81;;;34.48;20.73
9261;BME280;4667;42.726;23.252;2023-08-31T11:53:33;94904.00;;;34.89;20.01
9261;BME280;4667;42.726;23.252;2023-08-31T11:56:02;94928.38;;;35.10;19.58
9261;BME280;4667;42.726;23.252;2023-08-31T11:58:28;94907.91;;;35.19;19.25
9261;BME280;4667;42.726;23.252;2023-08-31T12:00:56;94926.28;;;35.99;18.47
9261;BME280;4667;42.726;23.252;2023-08-31T12:03:24;94921.38;;;35.63;19.22
9261;BME280;4667;42.726;23.252;2023-08-31T12:05:54;94917.25;;;35.75;19.04
9261;BME280;4667;42.726;23.252;2023-08-31T12:08:25;94918.91;;;36.16;18.53
9261;BME280;4667;42.726;23.252;2023-08-31T12:10:53;94916.72;;;35.84;18.45
9261;BME280;4667;42.726;23.252;2023-08-31T12:13:19;94911.63;;;35.59;19.12
9261;BME280;4667;42.726;23.252;2023-08-31T12:15:47;94913.22;;;34.72;20.01
9261;BME280;4667;42.726;23.252;2023-08-31T12:18:18;94914.44;;;35.01;19.65
9261;BME280;4667;42.726;23.252;2023-08-31T12:20:46;94912.31;;;35.39;19.73
9261;BME280;4667;42.726;23.252;2023-08-31T12:23:15;94903.59;;;35.72;18.86
9261;BME280;4667;42.726;23.252;2023-08-31T12:25:46;94896.59;;;35.67;18.20
9261;BME280;4667;42.726;23.252;2023-08-31T12:28:13;94900.94;;;35.88;18.58
9261;BME280;4667;42.726;23.252;2023-08-31T12:30:42;94758.41;;;35.37;17.61
9261;BME280;4667;42.726;23.252;2023-08-31T12:33:09;94908.16;;;36.25;17.64
9261;BME280;4667;42.726;23.252;2023-08-31T12:35:36;94905.13;;;36.39;17.60
9261;BME280;4667;42.726;23.252;2023-08-31T12:38:04;94901.78;;;36.91;17.14
9261;BME280;4667;42.726;23.252;2023-08-31T12:40:32;94896.78;;;36.66;16.88
9261;BME280;4667;42.726;23.252;2023-08-31T12:42:59;94906.41;;;36.35;17.12
9261;BME280;4667;42.726;23.252;2023-08-31T12:45:25;94862.19;;;36.09;17.40
9261;BME280;4667;42.726;23.252;2023-08-31T12:47:52;94895.38;;;37.31;16.86
9261;BME280;4667;42.726;23.252;2023-08-31T12:50:19;94897.09;;;37.25;16.49
9261;BME280;4667;42.726;23.252;2023-08-31T12:52:46;94891.50;;;37.28;17.32
9261;BME280;4667;42.726;23.252;2023-08-31T12:55:13;94815.28;;;36.96;16.78
9261;BME280;4667;42.726;23.252;2023-08-31T12:57:41;94891.13;;;37.62;16.80
9261;BME280;4667;42.726;23.252;2023-08-31T13:00:09;94893.69;;;37.53;17.07
9261;BME280;4667;42.726;23.252;2023-08-31T13:02:37;94897.84;;;37.09;16.61
9261;BME280;4667;42.726;23.252;2023-08-31T13:05:04;94904.78;;;36.77;16.99
9261;BME280;4667;42.726;23.252;2023-08-31T13:07:31;94887.81;;;36.62;17.12
9261;BME280;4667;42.726;23.252;2023-08-31T13:10:00;94897.19;;;36.65;17.26
9261;BME280;4667;42.726;23.252;2023-08-31T13:12:29;94889.63;;;37.25;17.02
9261;BME280;4667;42.726;23.252;2023-08-31T13:14:57;94871.19;;;36.69;16.61
9261;BME280;4667;42.726;23.252;2023-08-31T13:17:24;94898.56;;;35.90;17.02
9261;BME280;4667;42.726;23.252;2023-08-31T13:19:52;94906.00;;;35.15;17.62
9261;BME280;4667;42.726;23.252;2023-08-31T13:22:18;94904.84;;;34.86;18.18